sensor_id;sensor_type;location;lat;lon;timestamp;temperature;humidity
770;DHT22;368;48.698;9.116;2022-09-03T00:02:12;15.70;99.90
770;DHT22;368;48.698;9.116;2022-09-03T00:04:46;15.50;99.90
770;DHT22;368;48.698;9.116;2022-09-03T00:07:21;15.20;99.90
770;DHT22;368;48.698;9.116;2022-09-03T00:09:56;15.30;99.90
770;DHT22;368;48.698;9.116;2022-09-03T00:12:27;15.50;99.90
770;DHT22;368;48.698;9.116;2022-09-03T00:14:59;15.70;99.90
770;DHT22;368;48.698;9.116;2022-09-03T00:17:33;15.40;99.90
770;DHT22;368;48.698;9.116;2022-09-03T00:20:05;15.40;99.90
770;DHT22;368;48.698;9.116;2022-09-03T00:22:34;15.50;99.90
770;DHT22;368;48.698;9.116;2022-09-03T00:25:05;15.60;99.90
770;DHT22;368;48.698;9.116;2022-09-03T00:27:37;15.50;99.90
770;DHT22;368;48.698;9.116;2022-09-03T00:30:08;15.50;99.90
770;DHT22;368;48.698;9.116;2022-09-03T00:32:40;15.90;99.90
770;DHT22;368;48.698;9.116;2022-09-03T00:35:15;15.70;99.90
770;DHT22;368;48.698;9.116;2022-09-03T00:37:42;15.70;99.90
770;DHT22;368;48.698;9.116;2022-09-03T00:40:18;15.70;99.90
770;DHT22;368;48.698;9.116;2022-09-03T00:42:54;15.70;99.90
770;DHT22;368;48.698;9.116;2022-09-03T00:45:31;15.70;99.90
770;DHT22;368;48.698;9.116;2022-09-03T00:48:09;15.70;99.90
770;DHT22;368;48.698;9.116;2022-09-03T00:50:46;15.80;99.90
770;DHT22;368;48.698;9.116;2022-09-03T00:53:22;15.70;99.90
770;DHT22;368;48.698;9.116;2022-09-03T00:55:55;16.20;99.90
770;DHT22;368;48.698;9.116;2022-09-03T00:58:52;15.90;99.90
770;DHT22;368;48.698;9.116;2022-09-03T01:01:28;15.70;99.90
770;DHT22;368;48.698;9.116;2022-09-03T01:04:05;15.60;99.90
770;DHT22;368;48.698;9.116;2022-09-03T01:06:40;15.40;99.90
770;DHT22;368;48.698;9.116;2022-09-03T01:09:21;15.30;99.90
770;DHT22;368;48.698;9.116;2022-09-03T01:11:59;15.40;99.90
770;DHT22;368;48.698;9.116;2022-09-03T01:14:38;15.20;99.90
770;DHT22;368;48.698;9.116;2022-09-03T01:17:18;15.50;99.90
770;DHT22;368;48.698;9.116;2022-09-03T01:20:02;15.30;99.90
770;DHT22;368;48.698;9.116;2022-09-03T01:25:51;15.40;99.90
770;DHT22;368;48.698;9.116;2022-09-03T01:28:32;15.50;99.90
770;DHT22;368;48.698;9.116;2022-09-03T01:31:14;15.60;99.90
770;DHT22;368;48.698;9.116;2022-09-03T01:33:49;15.10;99.90
770;DHT22;368;48.698;9.116;2022-09-03T01:36:23;15.50;99.90
770;DHT22;368;48.698;9.116;2022-09-03T01:38:55;15.40;99.90
770;DHT22;368;48.698;9.116;2022-09-03T01:41:33;15.30;99.90
770;DHT22;368;48.698;9.116;2022-09-03T01:44:29;15.10;99.90
770;DHT22;368;48.698;9.116;2022-09-03T01:47:03;15.20;99.90
770;DHT22;368;48.698;9.116;2022-09-03T01:49:38;15.30;99.90
770;DHT22;368;48.698;9.116;2022-09-03T01:52:11;15.40;99.90
770;DHT22;368;48.698;9.116;2022-09-03T01:54:51;15.30;99.90
770;DHT22;368;48.698;9.116;2022-09-03T01:57:42;15.40;99.90
770;DHT22;368;48.698;9.116;2022-09-03T02:00:14;15.50;99.90
770;DHT22;368;48.698;9.116;2022-09-03T02:02:46;15.30;99.90
770;DHT22;368;48.698;9.116;2022-09-03T02:05:15;15.00;99.90
770;DHT22;368;48.698;9.116;2022-09-03T02:07:46;15.00;99.90
770;DHT22;368;48.698;9.116;2022-09-03T02:10:16;15.30;99.90
770;DHT22;368;48.698;9.116;2022-09-03T02:12:45;15.20;99.90
770;DHT22;368;48.698;9.116;2022-09-03T02:15:17;14.90;99.90
770;DHT22;368;48.698;9.116;2022-09-03T02:17:46;15.00;99.90
770;DHT22;368;48.698;9.116;2022-09-03T02:20:18;15.20;99.90
770;DHT22;368;48.698;9.116;2022-09-03T02:22:47;15.20;99.90
770;DHT22;368;48.698;9.116;2022-09-03T02:25:14;14.80;99.90
770;DHT22;368;48.698;9.116;2022-09-03T02:27:42;14.80;99.90
770;DHT22;368;48.698;9.116;2022-09-03T02:30:10;14.80;99.90
770;DHT22;368;48.698;9.116;2022-09-03T02:32:39;14.70;99.90
770;DHT22;368;48.698;9.116;2022-09-03T02:35:06;14.50;99.90
770;DHT22;368;48.698;9.116;2022-09-03T02:37:33;14.70;99.90
770;DHT22;368;48.698;9.116;2022-09-03T02:40:00;14.60;99.90
770;DHT22;368;48.698;9.116;2022-09-03T02:42:30;14.30;99.90
770;DHT22;368;48.698;9.116;2022-09-03T02:45:05;14.70;99.90
770;DHT22;368;48.698;9.116;2022-09-03T02:47:35;14.50;99.90
770;DHT22;368;48.698;9.116;2022-09-03T02:50:05;14.60;99.90
770;DHT22;368;48.698;9.116;2022-09-03T02:52:32;14.40;99.90
770;DHT22;368;48.698;9.116;2022-09-03T02:54:59;14.30;99.90
770;DHT22;368;48.698;9.116;2022-09-03T02:57:26;14.40;99.90
770;DHT22;368;48.698;9.116;2022-09-03T02:59:53;14.50;99.90
770;DHT22;368;48.698;9.116;2022-09-03T03:02:20;14.40;99.90
770;DHT22;368;48.698;9.116;2022-09-03T03:04:47;14.10;99.90
770;DHT22;368;48.698;9.116;2022-09-03T03:07:15;14.20;99.90
770;DHT22;368;48.698;9.116;2022-09-03T03:09:41;13.80;99.90
770;DHT22;368;48.698;9.116;2022-09-03T03:12:08;13.90;99.90
770;DHT22;368;48.698;9.116;2022-09-03T03:14:35;13.70;99.90
770;DHT22;368;48.698;9.116;2022-09-03T03:17:02;13.80;99.90
770;DHT22;368;48.698;9.116;2022-09-03T03:19:29;13.90;99.90
770;DHT22;368;48.698;9.116;2022-09-03T03:21:55;13.90;99.90
770;DHT22;368;48.698;9.116;2022-09-03T03:24:24;14.00;99.90
770;DHT22;368;48.698;9.116;2022-09-03T03:26:54;13.70;99.90
770;DHT22;368;48.698;9.116;2022-09-03T03:29:22;13.80;99.90
770;DHT22;368;48.698;9.116;2022-09-03T03:31:49;13.50;99.90
770;DHT22;368;48.698;9.116;2022-09-03T03:34:16;13.60;99.90
770;DHT22;368;48.698;9.116;2022-09-03T03:36:43;13.80;99.90
770;DHT22;368;48.698;9.116;2022-09-03T03:39:10;13.70;99.90
770;DHT22;368;48.698;9.116;2022-09-03T03:41:38;13.80;99.90
770;DHT22;368;48.698;9.116;2022-09-03T03:44:06;13.90;99.90
770;DHT22;368;48.698;9.116;2022-09-03T03:46:34;13.90;99.90
770;DHT22;368;48.698;9.116;2022-09-03T03:49:02;14.00;99.90
770;DHT22;368;48.698;9.116;2022-09-03T03:51:29;13.90;99.90
770;DHT22;368;48.698;9.116;2022-09-03T03:53:57;13.90;99.90
770;DHT22;368;48.698;9.116;2022-09-03T03:56:25;14.00;99.90
770;DHT22;368;48.698;9.116;2022-09-03T03:58:53;14.10;99.90
770;DHT22;368;48.698;9.116;2022-09-03T04:01:22;14.00;99.90
770;DHT22;368;48.698;9.116;2022-09-03T04:03:49;14.20;99.90
770;DHT22;368;48.698;9.116;2022-09-03T04:06:17;14.30;99.90
770;DHT22;368;48.698;9.116;2022-09-03T04:08:46;14.20;99.90
770;DHT22;368;48.698;9.116;2022-09-03T04:11:15;14.50;99.90
770;DHT22;368;48.698;9.116;2022-09-03T04:13:44;14.40;99.90
770;DHT22;368;48.698;9.116;2022-09-03T04:16:14;14.60;99.90
770;DHT22;368;48.698;9.116;2022-09-03T04:18:41;14.40;99.90
770;DHT22;368;48.698;9.116;2022-09-03T04:21:09;14.40;99.90
770;DHT22;368;48.698;9.116;2022-09-03T04:23:38;14.40;99.90
770;DHT22;368;48.698;9.116;2022-09-03T04:26:05;14.30;99.90
770;DHT22;368;48.698;9.116;2022-09-03T04:28:33;14.00;99.90
770;DHT22;368;48.698;9.116;2022-09-03T04:31:00;14.20;99.90
770;DHT22;368;48.698;9.116;2022-09-03T04:33:29;14.10;99.90
770;DHT22;368;48.698;9.116;2022-09-03T04:36:02;14.20;99.90
770;DHT22;368;48.698;9.116;2022-09-03T04:38:30;14.30;99.90
770;DHT22;368;48.698;9.116;2022-09-03T04:40:57;14.30;99.90
770;DHT22;368;48.698;9.116;2022-09-03T04:43:24;14.70;99.90
770;DHT22;368;48.698;9.116;2022-09-03T04:45:55;14.40;99.90
770;DHT22;368;48.698;9.116;2022-09-03T04:48:22;14.30;99.90
770;DHT22;368;48.698;9.116;2022-09-03T04:50:50;14.40;99.90
770;DHT22;368;48.698;9.116;2022-09-03T04:53:17;14.50;99.90
770;DHT22;368;48.698;9.116;2022-09-03T04:55:43;14.50;99.90
770;DHT22;368;48.698;9.116;2022-09-03T04:58:10;14.70;99.90
770;DHT22;368;48.698;9.116;2022-09-03T05:00:37;14.50;99.90
770;DHT22;368;48.698;9.116;2022-09-03T05:03:04;14.40;99.90
770;DHT22;368;48.698;9.116;2022-09-03T05:05:32;14.50;99.90
770;DHT22;368;48.698;9.116;2022-09-03T05:08:00;14.60;99.90
770;DHT22;368;48.698;9.116;2022-09-03T05:10:27;14.80;99.90
770;DHT22;368;48.698;9.116;2022-09-03T05:12:58;14.80;99.90
770;DHT22;368;48.698;9.116;2022-09-03T05:15:25;14.80;99.90
770;DHT22;368;48.698;9.116;2022-09-03T05:17:55;15.00;99.90
770;DHT22;368;48.698;9.116;2022-09-03T05:20:22;14.90;99.90
770;DHT22;368;48.698;9.116;2022-09-03T05:22:49;15.10;99.90
770;DHT22;368;48.698;9.116;2022-09-03T05:25:17;15.30;99.90
770;DHT22;368;48.698;9.116;2022-09-03T05:27:44;15.20;99.90
770;DHT22;368;48.698;9.116;2022-09-03T05:30:12;15.20;99.90
770;DHT22;368;48.698;9.116;2022-09-03T05:32:38;15.40;99.90
770;DHT22;368;48.698;9.116;2022-09-03T05:35:07;15.10;99.90
770;DHT22;368;48.698;9.116;2022-09-03T05:37:35;15.20;99.90
770;DHT22;368;48.698;9.116;2022-09-03T05:40:03;15.00;99.90
770;DHT22;368;48.698;9.116;2022-09-03T05:42:31;14.90;99.90
770;DHT22;368;48.698;9.116;2022-09-03T05:44:59;15.10;99.90
770;DHT22;368;48.698;9.116;2022-09-03T05:47:26;15.10;99.90
770;DHT22;368;48.698;9.116;2022-09-03T05:49:53;15.50;99.90
770;DHT22;368;48.698;9.116;2022-09-03T05:52:19;15.70;99.90
770;DHT22;368;48.698;9.116;2022-09-03T05:54:47;15.60;99.90
770;DHT22;368;48.698;9.116;2022-09-03T05:57:14;15.60;99.90
770;DHT22;368;48.698;9.116;2022-09-03T05:59:42;15.70;99.90
770;DHT22;368;48.698;9.116;2022-09-03T06:02:09;15.80;99.90
770;DHT22;368;48.698;9.116;2022-09-03T06:04:36;15.80;99.90
770;DHT22;368;48.698;9.116;2022-09-03T06:07:03;15.80;99.90
770;DHT22;368;48.698;9.116;2022-09-03T06:09:29;15.50;99.90
770;DHT22;368;48.698;9.116;2022-09-03T06:11:56;16.00;99.90
770;DHT22;368;48.698;9.116;2022-09-03T06:14:23;15.80;99.90
770;DHT22;368;48.698;9.116;2022-09-03T06:16:51;15.80;99.90
770;DHT22;368;48.698;9.116;2022-09-03T06:19:20;15.80;99.90
770;DHT22;368;48.698;9.116;2022-09-03T06:21:46;16.00;99.90
770;DHT22;368;48.698;9.116;2022-09-03T06:24:15;16.00;99.90
770;DHT22;368;48.698;9.116;2022-09-03T06:26:42;15.90;99.90
770;DHT22;368;48.698;9.116;2022-09-03T06:29:09;16.10;99.90
770;DHT22;368;48.698;9.116;2022-09-03T06:31:37;16.20;99.90
770;DHT22;368;48.698;9.116;2022-09-03T06:34:05;16.40;99.90
770;DHT22;368;48.698;9.116;2022-09-03T06:36:33;16.50;99.90
770;DHT22;368;48.698;9.116;2022-09-03T06:39:00;16.70;99.90
770;DHT22;368;48.698;9.116;2022-09-03T06:41:28;16.70;99.90
770;DHT22;368;48.698;9.116;2022-09-03T06:44:01;16.70;99.90
770;DHT22;368;48.698;9.116;2022-09-03T06:46:29;16.70;99.90
770;DHT22;368;48.698;9.116;2022-09-03T06:48:56;16.80;99.90
770;DHT22;368;48.698;9.116;2022-09-03T06:51:26;17.00;99.90
770;DHT22;368;48.698;9.116;2022-09-03T06:53:57;17.10;99.90
770;DHT22;368;48.698;9.116;2022-09-03T06:56:24;17.10;99.90
770;DHT22;368;48.698;9.116;2022-09-03T06:58:53;17.30;99.90
770;DHT22;368;48.698;9.116;2022-09-03T07:01:21;17.40;99.90
770;DHT22;368;48.698;9.116;2022-09-03T07:03:52;17.70;99.90
770;DHT22;368;48.698;9.116;2022-09-03T07:06:22;17.90;99.90
770;DHT22;368;48.698;9.116;2022-09-03T07:08:51;18.00;99.90
770;DHT22;368;48.698;9.116;2022-09-03T07:11:19;18.00;99.90
770;DHT22;368;48.698;9.116;2022-09-03T07:13:49;18.00;99.90
770;DHT22;368;48.698;9.116;2022-09-03T07:16:19;18.10;99.90
770;DHT22;368;48.698;9.116;2022-09-03T07:18:46;18.10;99.90
770;DHT22;368;48.698;9.116;2022-09-03T07:21:15;18.30;99.90
770;DHT22;368;48.698;9.116;2022-09-03T07:23:42;18.30;99.90
770;DHT22;368;48.698;9.116;2022-09-03T07:26:12;18.60;99.90
770;DHT22;368;48.698;9.116;2022-09-03T07:28:41;18.80;99.90
770;DHT22;368;48.698;9.116;2022-09-03T07:31:13;19.20;99.90
770;DHT22;368;48.698;9.116;2022-09-03T07:33:40;19.30;99.90
770;DHT22;368;48.698;9.116;2022-09-03T07:36:09;19.20;99.90
770;DHT22;368;48.698;9.116;2022-09-03T07:38:36;19.50;99.90
770;DHT22;368;48.698;9.116;2022-09-03T07:41:05;20.00;99.90
770;DHT22;368;48.698;9.116;2022-09-03T07:43:36;20.10;99.90
770;DHT22;368;48.698;9.116;2022-09-03T07:46:04;20.20;99.90
770;DHT22;368;48.698;9.116;2022-09-03T07:48:33;20.00;99.90
770;DHT22;368;48.698;9.116;2022-09-03T07:51:00;19.90;99.90
770;DHT22;368;48.698;9.116;2022-09-03T07:53:27;20.00;99.90
770;DHT22;368;48.698;9.116;2022-09-03T07:56:00;20.00;99.90
770;DHT22;368;48.698;9.116;2022-09-03T07:58:28;20.00;99.90
770;DHT22;368;48.698;9.116;2022-09-03T08:00:57;20.10;99.90
770;DHT22;368;48.698;9.116;2022-09-03T08:03:24;20.30;99.90
770;DHT22;368;48.698;9.116;2022-09-03T08:05:51;20.50;99.90
770;DHT22;368;48.698;9.116;2022-09-03T08:08:17;21.10;99.90
770;DHT22;368;48.698;9.116;2022-09-03T08:10:44;21.40;99.90
770;DHT22;368;48.698;9.116;2022-09-03T08:13:11;21.70;99.90
770;DHT22;368;48.698;9.116;2022-09-03T08:15:38;21.80;99.90
770;DHT22;368;48.698;9.116;2022-09-03T08:18:08;21.60;99.90
770;DHT22;368;48.698;9.116;2022-09-03T08:20:36;22.30;99.30
770;DHT22;368;48.698;9.116;2022-09-03T08:23:04;22.00;99.90
770;DHT22;368;48.698;9.116;2022-09-03T08:25:31;22.30;99.90
770;DHT22;368;48.698;9.116;2022-09-03T08:27:58;22.80;98.20
770;DHT22;368;48.698;9.116;2022-09-03T08:30:25;22.60;98.90
770;DHT22;368;48.698;9.116;2022-09-03T08:32:53;22.60;97.90
770;DHT22;368;48.698;9.116;2022-09-03T08:35:21;23.40;97.70
770;DHT22;368;48.698;9.116;2022-09-03T08:37:48;24.90;94.60
770;DHT22;368;48.698;9.116;2022-09-03T08:40:18;24.80;94.10
770;DHT22;368;48.698;9.116;2022-09-03T08:42:56;24.60;94.30
770;DHT22;368;48.698;9.116;2022-09-03T08:45:25;24.10;94.50
770;DHT22;368;48.698;9.116;2022-09-03T08:47:59;23.80;95.10
770;DHT22;368;48.698;9.116;2022-09-03T08:50:31;23.50;95.30
770;DHT22;368;48.698;9.116;2022-09-03T08:53:05;23.50;96.10
770;DHT22;368;48.698;9.116;2022-09-03T08:55:35;23.80;95.70
770;DHT22;368;48.698;9.116;2022-09-03T08:58:10;23.50;95.90
770;DHT22;368;48.698;9.116;2022-09-03T09:00:46;23.40;95.60
770;DHT22;368;48.698;9.116;2022-09-03T09:03:40;23.50;95.40
770;DHT22;368;48.698;9.116;2022-09-03T09:06:17;23.30;95.80
770;DHT22;368;48.698;9.116;2022-09-03T09:08:53;22.80;96.50
770;DHT22;368;48.698;9.116;2022-09-03T09:11:33;22.60;97.50
770;DHT22;368;48.698;9.116;2022-09-03T09:14:08;22.20;99.10
770;DHT22;368;48.698;9.116;2022-09-03T09:16:41;22.70;97.00
770;DHT22;368;48.698;9.116;2022-09-03T09:19:26;22.60;97.60
770;DHT22;368;48.698;9.116;2022-09-03T09:22:01;23.00;97.20
770;DHT22;368;48.698;9.116;2022-09-03T09:24:36;24.40;95.90
770;DHT22;368;48.698;9.116;2022-09-03T09:27:04;25.40;94.80
770;DHT22;368;48.698;9.116;2022-09-03T09:29:34;26.20;93.10
770;DHT22;368;48.698;9.116;2022-09-03T09:32:01;27.70;90.90
770;DHT22;368;48.698;9.116;2022-09-03T09:34:33;28.00;88.80
770;DHT22;368;48.698;9.116;2022-09-03T09:37:03;26.60;90.10
770;DHT22;368;48.698;9.116;2022-09-03T09:39:31;27.40;91.70
770;DHT22;368;48.698;9.116;2022-09-03T09:41:59;29.90;85.30
770;DHT22;368;48.698;9.116;2022-09-03T09:44:30;30.50;80.50
770;DHT22;368;48.698;9.116;2022-09-03T09:47:05;28.00;83.30
770;DHT22;368;48.698;9.116;2022-09-03T09:49:34;25.80;90.30
770;DHT22;368;48.698;9.116;2022-09-03T09:52:08;25.20;91.40
770;DHT22;368;48.698;9.116;2022-09-03T09:54:37;24.40;92.00
770;DHT22;368;48.698;9.116;2022-09-03T09:57:06;23.80;93.00
770;DHT22;368;48.698;9.116;2022-09-03T09:59:34;23.40;93.50
770;DHT22;368;48.698;9.116;2022-09-03T10:02:09;23.40;93.90
770;DHT22;368;48.698;9.116;2022-09-03T10:04:37;23.80;93.20
770;DHT22;368;48.698;9.116;2022-09-03T10:07:20;23.20;94.00
770;DHT22;368;48.698;9.116;2022-09-03T10:10:00;23.50;94.00
770;DHT22;368;48.698;9.116;2022-09-03T10:12:31;23.20;93.90
770;DHT22;368;48.698;9.116;2022-09-03T10:15:07;23.50;94.00
770;DHT22;368;48.698;9.116;2022-09-03T10:17:43;23.70;94.20
770;DHT22;368;48.698;9.116;2022-09-03T10:20:14;23.70;93.70
770;DHT22;368;48.698;9.116;2022-09-03T10:22:59;23.40;94.40
770;DHT22;368;48.698;9.116;2022-09-03T10:25:33;23.40;94.10
770;DHT22;368;48.698;9.116;2022-09-03T10:28:05;23.70;94.00
770;DHT22;368;48.698;9.116;2022-09-03T10:30:53;24.70;92.60
770;DHT22;368;48.698;9.116;2022-09-03T10:33:25;27.10;90.40
770;DHT22;368;48.698;9.116;2022-09-03T10:36:00;28.90;84.60
770;DHT22;368;48.698;9.116;2022-09-03T10:38:33;28.30;79.70
770;DHT22;368;48.698;9.116;2022-09-03T10:41:09;27.80;83.10
770;DHT22;368;48.698;9.116;2022-09-03T10:43:55;27.80;82.50
770;DHT22;368;48.698;9.116;2022-09-03T10:46:27;27.00;85.10
770;DHT22;368;48.698;9.116;2022-09-03T10:49:07;28.40;83.50
770;DHT22;368;48.698;9.116;2022-09-03T10:51:40;27.10;83.60
770;DHT22;368;48.698;9.116;2022-09-03T10:54:22;26.70;86.60
770;DHT22;368;48.698;9.116;2022-09-03T10:56:58;25.90;87.70
770;DHT22;368;48.698;9.116;2022-09-03T10:59:37;25.00;90.20
770;DHT22;368;48.698;9.116;2022-09-03T11:02:28;24.40;90.80
770;DHT22;368;48.698;9.116;2022-09-03T11:05:02;23.40;92.10
770;DHT22;368;48.698;9.116;2022-09-03T11:07:35;23.50;92.60
770;DHT22;368;48.698;9.116;2022-09-03T11:10:13;23.00;93.00
770;DHT22;368;48.698;9.116;2022-09-03T11:12:45;22.90;93.70
770;DHT22;368;48.698;9.116;2022-09-03T11:15:23;23.10;93.90
770;DHT22;368;48.698;9.116;2022-09-03T11:17:54;23.10;93.70
770;DHT22;368;48.698;9.116;2022-09-03T11:20:25;22.90;93.60
770;DHT22;368;48.698;9.116;2022-09-03T11:22:56;22.60;94.70
770;DHT22;368;48.698;9.116;2022-09-03T11:25:27;22.60;94.20
770;DHT22;368;48.698;9.116;2022-09-03T11:28:05;22.70;94.20
770;DHT22;368;48.698;9.116;2022-09-03T11:30:48;22.60;94.40
770;DHT22;368;48.698;9.116;2022-09-03T11:33:20;22.40;94.70
770;DHT22;368;48.698;9.116;2022-09-03T11:35:56;22.10;95.10
770;DHT22;368;48.698;9.116;2022-09-03T11:38:26;22.10;95.40
770;DHT22;368;48.698;9.116;2022-09-03T11:41:11;21.90;95.40
770;DHT22;368;48.698;9.116;2022-09-03T11:43:39;21.90;95.70
770;DHT22;368;48.698;9.116;2022-09-03T11:46:10;21.30;96.70
770;DHT22;368;48.698;9.116;2022-09-03T11:48:42;21.30;97.50
770;DHT22;368;48.698;9.116;2022-09-03T11:51:20;21.20;97.80
770;DHT22;368;48.698;9.116;2022-09-03T11:53:55;21.00;99.90
770;DHT22;368;48.698;9.116;2022-09-03T11:56:24;21.00;99.90
770;DHT22;368;48.698;9.116;2022-09-03T11:59:14;20.70;99.90
770;DHT22;368;48.698;9.116;2022-09-03T12:01:45;20.80;99.90
770;DHT22;368;48.698;9.116;2022-09-03T12:04:16;20.50;99.90
770;DHT22;368;48.698;9.116;2022-09-03T12:10:09;20.00;99.90
770;DHT22;368;48.698;9.116;2022-09-03T12:12:45;19.80;99.90
770;DHT22;368;48.698;9.116;2022-09-03T12:15:28;19.50;99.90
770;DHT22;368;48.698;9.116;2022-09-03T12:18:02;19.10;99.90
770;DHT22;368;48.698;9.116;2022-09-03T12:20:59;18.40;99.90
770;DHT22;368;48.698;9.116;2022-09-03T12:23:28;18.10;99.90
770;DHT22;368;48.698;9.116;2022-09-03T12:25:56;17.60;99.90
770;DHT22;368;48.698;9.116;2022-09-03T12:28:27;17.20;99.90
770;DHT22;368;48.698;9.116;2022-09-03T12:31:05;16.90;99.90
770;DHT22;368;48.698;9.116;2022-09-03T12:33:46;16.80;99.90
770;DHT22;368;48.698;9.116;2022-09-03T12:36:13;16.70;99.90
770;DHT22;368;48.698;9.116;2022-09-03T12:38:40;16.70;99.90
770;DHT22;368;48.698;9.116;2022-09-03T12:41:22;16.70;99.90
770;DHT22;368;48.698;9.116;2022-09-03T12:43:53;16.70;99.90
770;DHT22;368;48.698;9.116;2022-09-03T12:46:24;16.70;99.90
770;DHT22;368;48.698;9.116;2022-09-03T12:48:56;16.60;99.90
770;DHT22;368;48.698;9.116;2022-09-03T12:51:31;16.60;99.90
770;DHT22;368;48.698;9.116;2022-09-03T12:53:58;16.70;99.90
770;DHT22;368;48.698;9.116;2022-09-03T12:56:26;16.80;99.90
770;DHT22;368;48.698;9.116;2022-09-03T12:59:02;16.80;99.90
770;DHT22;368;48.698;9.116;2022-09-03T13:01:32;16.80;99.90
770;DHT22;368;48.698;9.116;2022-09-03T13:04:03;17.00;99.90
770;DHT22;368;48.698;9.116;2022-09-03T13:06:43;16.90;99.90
770;DHT22;368;48.698;9.116;2022-09-03T13:09:15;17.20;99.90
770;DHT22;368;48.698;9.116;2022-09-03T13:11:45;17.30;99.90
770;DHT22;368;48.698;9.116;2022-09-03T13:14:13;17.40;99.90
770;DHT22;368;48.698;9.116;2022-09-03T13:16:58;17.50;99.90
770;DHT22;368;48.698;9.116;2022-09-03T13:19:32;17.80;99.90
770;DHT22;368;48.698;9.116;2022-09-03T13:22:08;18.00;99.90
770;DHT22;368;48.698;9.116;2022-09-03T13:24:56;18.50;99.90
770;DHT22;368;48.698;9.116;2022-09-03T13:27:31;18.80;99.90
770;DHT22;368;48.698;9.116;2022-09-03T13:30:12;19.70;99.90
770;DHT22;368;48.698;9.116;2022-09-03T13:32:49;20.80;99.90
770;DHT22;368;48.698;9.116;2022-09-03T13:35:25;21.60;99.90
770;DHT22;368;48.698;9.116;2022-09-03T13:37:54;21.60;99.90
770;DHT22;368;48.698;9.116;2022-09-03T13:40:27;21.70;99.90
770;DHT22;368;48.698;9.116;2022-09-03T13:43:02;22.00;99.90
770;DHT22;368;48.698;9.116;2022-09-03T13:45:36;22.80;99.90
770;DHT22;368;48.698;9.116;2022-09-03T13:48:09;22.00;99.90
770;DHT22;368;48.698;9.116;2022-09-03T13:51:00;23.10;99.90
770;DHT22;368;48.698;9.116;2022-09-03T13:53:39;25.60;99.90
770;DHT22;368;48.698;9.116;2022-09-03T13:56:17;25.80;98.20
770;DHT22;368;48.698;9.116;2022-09-03T13:58:49;25.60;98.70
770;DHT22;368;48.698;9.116;2022-09-03T14:01:24;25.10;98.00
770;DHT22;368;48.698;9.116;2022-09-03T14:03:53;25.30;98.40
770;DHT22;368;48.698;9.116;2022-09-03T14:06:35;25.60;97.70
770;DHT22;368;48.698;9.116;2022-09-03T14:09:13;25.90;97.90
770;DHT22;368;48.698;9.116;2022-09-03T14:11:51;27.20;96.70
770;DHT22;368;48.698;9.116;2022-09-03T14:14:31;26.90;93.90
770;DHT22;368;48.698;9.116;2022-09-03T14:17:11;26.20;96.10
770;DHT22;368;48.698;9.116;2022-09-03T14:19:44;25.20;96.60
770;DHT22;368;48.698;9.116;2022-09-03T14:22:15;25.40;96.70
770;DHT22;368;48.698;9.116;2022-09-03T14:24:47;26.70;95.30
770;DHT22;368;48.698;9.116;2022-09-03T14:27:22;25.90;96.20
770;DHT22;368;48.698;9.116;2022-09-03T14:29:53;25.60;96.00
770;DHT22;368;48.698;9.116;2022-09-03T14:32:31;26.20;95.30
770;DHT22;368;48.698;9.116;2022-09-03T14:35:19;25.90;95.70
770;DHT22;368;48.698;9.116;2022-09-03T14:38:14;24.40;97.30
770;DHT22;368;48.698;9.116;2022-09-03T14:40:46;22.50;99.90
770;DHT22;368;48.698;9.116;2022-09-03T14:43:45;21.90;99.90
770;DHT22;368;48.698;9.116;2022-09-03T14:46:24;21.80;99.90
770;DHT22;368;48.698;9.116;2022-09-03T14:49:12;22.00;99.90
770;DHT22;368;48.698;9.116;2022-09-03T14:52:11;22.60;99.90
770;DHT22;368;48.698;9.116;2022-09-03T14:54:51;23.00;99.90
770;DHT22;368;48.698;9.116;2022-09-03T14:57:43;24.90;99.90
770;DHT22;368;48.698;9.116;2022-09-03T15:00:15;26.80;96.10
770;DHT22;368;48.698;9.116;2022-09-03T15:03:08;27.50;94.00
770;DHT22;368;48.698;9.116;2022-09-03T15:05:45;27.60;93.60
770;DHT22;368;48.698;9.116;2022-09-03T15:08:25;27.50;92.80
770;DHT22;368;48.698;9.116;2022-09-03T15:10:58;26.60;94.40
770;DHT22;368;48.698;9.116;2022-09-03T15:13:29;25.90;94.80
770;DHT22;368;48.698;9.116;2022-09-03T15:16:12;25.10;96.20
770;DHT22;368;48.698;9.116;2022-09-03T15:18:54;24.10;97.50
770;DHT22;368;48.698;9.116;2022-09-03T15:21:40;24.00;98.70
770;DHT22;368;48.698;9.116;2022-09-03T15:24:18;24.30;98.60
770;DHT22;368;48.698;9.116;2022-09-03T15:27:00;24.70;98.60
770;DHT22;368;48.698;9.116;2022-09-03T15:29:40;25.50;97.80
770;DHT22;368;48.698;9.116;2022-09-03T15:32:19;25.70;96.10
770;DHT22;368;48.698;9.116;2022-09-03T15:34:58;25.00;97.10
770;DHT22;368;48.698;9.116;2022-09-03T15:37:36;23.70;98.70
770;DHT22;368;48.698;9.116;2022-09-03T15:40:07;23.10;99.90
770;DHT22;368;48.698;9.116;2022-09-03T15:42:35;22.60;99.90
770;DHT22;368;48.698;9.116;2022-09-03T15:45:06;22.40;99.90
770;DHT22;368;48.698;9.116;2022-09-03T15:47:50;22.30;99.90
770;DHT22;368;48.698;9.116;2022-09-03T15:50:32;21.90;99.90
770;DHT22;368;48.698;9.116;2022-09-03T15:53:05;21.60;99.90
770;DHT22;368;48.698;9.116;2022-09-03T15:55:42;21.70;99.90
770;DHT22;368;48.698;9.116;2022-09-03T15:58:24;22.10;99.90
770;DHT22;368;48.698;9.116;2022-09-03T16:00:56;22.10;99.90
770;DHT22;368;48.698;9.116;2022-09-03T16:03:34;22.30;99.90
770;DHT22;368;48.698;9.116;2022-09-03T16:06:17;22.30;99.90
770;DHT22;368;48.698;9.116;2022-09-03T16:08:51;22.10;99.90
770;DHT22;368;48.698;9.116;2022-09-03T16:11:28;21.60;99.90
770;DHT22;368;48.698;9.116;2022-09-03T16:14:04;21.50;99.90
770;DHT22;368;48.698;9.116;2022-09-03T16:16:46;21.30;99.90
770;DHT22;368;48.698;9.116;2022-09-03T16:19:17;21.30;99.90
770;DHT22;368;48.698;9.116;2022-09-03T16:21:53;21.00;99.90
770;DHT22;368;48.698;9.116;2022-09-03T16:24:30;20.80;99.90
770;DHT22;368;48.698;9.116;2022-09-03T16:27:04;20.70;99.90
770;DHT22;368;48.698;9.116;2022-09-03T16:29:33;20.60;99.90
770;DHT22;368;48.698;9.116;2022-09-03T16:32:11;20.50;99.90
770;DHT22;368;48.698;9.116;2022-09-03T16:34:49;20.50;99.90
770;DHT22;368;48.698;9.116;2022-09-03T16:37:23;20.50;99.90
770;DHT22;368;48.698;9.116;2022-09-03T16:40:02;20.30;99.90
770;DHT22;368;48.698;9.116;2022-09-03T16:42:37;20.20;99.90
770;DHT22;368;48.698;9.116;2022-09-03T16:45:14;20.20;99.90
770;DHT22;368;48.698;9.116;2022-09-03T16:47:54;20.20;99.90
770;DHT22;368;48.698;9.116;2022-09-03T16:50:30;20.00;99.90
770;DHT22;368;48.698;9.116;2022-09-03T16:53:09;20.10;99.90
770;DHT22;368;48.698;9.116;2022-09-03T16:55:55;20.00;99.90
770;DHT22;368;48.698;9.116;2022-09-03T16:58:31;20.20;99.90
770;DHT22;368;48.698;9.116;2022-09-03T17:01:12;20.50;99.90
770;DHT22;368;48.698;9.116;2022-09-03T17:03:56;20.50;99.90
770;DHT22;368;48.698;9.116;2022-09-03T17:06:46;20.90;99.90
770;DHT22;368;48.698;9.116;2022-09-03T17:09:25;20.90;99.90
770;DHT22;368;48.698;9.116;2022-09-03T17:12:02;20.80;99.90
770;DHT22;368;48.698;9.116;2022-09-03T17:14:52;20.50;99.90
770;DHT22;368;48.698;9.116;2022-09-03T17:17:35;20.30;99.90
770;DHT22;368;48.698;9.116;2022-09-03T17:20:11;20.10;99.90